Date,TemperatureHighF,TemperatureAvgF,TemperatureLowF,DewpointHighF,DewpointAvgF,DewpointLowF,HumidityHigh,HumidityAvg,HumidityLow,PressureMaxIn,PressureMinIn,WindSpeedMaxMPH,WindSpeedAvgMPH,GustSpeedMaxMPH,PrecipitationSumIn
2013-3-1,43.2,40.5,37.8,31.2,29.1,26.8,68,64,55,29.88,29.73,17,2,0,0.00
2013-3-2,38.0,34.6,29.2,27.7,24.0,20.1,82,65,54,29.89,29.82,16,2,0,0.00
2013-3-3,43.7,33.8,25.3,24.7,21.3,19.3,82,61,43,29.93,29.79,18,3,0,0.00
2013-3-4,47.9,35.8,28.4,23.3,19.4,16.3,70,52,36,30.04,29.92,20,3,0,0.00
2013-3-5,48.9,36.3,23.8,31.9,24.6,18.6,95,66,36,30.09,29.76,14,1,0,0.05
2013-3-6,39.3,35.6,32.7,36.4,33.8,31.4,97,93,82,29.96,29.47,33,8,0,2.18
2013-3-7,49.2,41.9,36.5,33.8,30.7,28.1,82,65,47,30.15,29.96,23,4,0,0.00
2013-3-8,48.4,41.9,34.7,32.1,29.9,27.3,75,63,51,30.25,30.11,24,5,0,0.00
2013-3-9,60.4,44.6,31.9,32.1,28.5,24.6,79,56,27,30.33,30.23,14,2,0,0.00
2013-3-10,61.5,44.8,26.3,41.1,30.2,23.3,92,62,27,30.33,30.21,13,2,0,0.00
2013-3-11,65.6,52.0,41.1,52.4,46.5,39.5,95,83,61,30.24,29.92,16,3,0,0.00
2013-3-12,62.1,55.5,43.3,61.2,49.2,32.6,97,80,61,29.94,29.71,19,5,0,0.54
2013-3-13,52.9,42.4,29.3,35.9,29.1,19.6,93,61,37,30.07,29.89,17,2,0,0.00
2013-3-14,49.5,38.8,29.6,24.3,20.7,18.4,72,49,31,30.15,30.01,21,3,0,0.00
2013-3-15,58.2,39.8,22.8,36.3,27.4,19.1,90,64,36,30.10,29.79,20,2,0,0.00
2013-3-16,62.3,47.1,35.1,52.9,42.2,31.1,95,83,69,29.88,29.59,15,1,0,0.06
2013-3-17,42.1,37.0,33.5,36.4,34.1,31.3,95,89,77,30.27,29.87,11,1,0,0.10
2013-3-18,38.3,34.8,32.0,37.5,33.8,30.9,97,96,95,30.31,29.87,9,1,0,0.59
2013-3-19,63.4,44.6,33.6,44.0,32.5,13.4,98,71,25,29.92,29.70,21,2,0,0.01
2013-3-20,56.4,43.7,26.8,28.8,19.8,11.6,79,40,25,30.01,29.75,19,2,0,0.02
2013-3-21,46.0,35.6,26.7,28.2,19.7,12.8,80,53,36,29.92,29.73,25,5,0,0.00
2013-3-22,49.8,35.0,22.1,25.2,19.6,13.9,80,55,35,29.99,29.88,15,2,0,0.00
2013-3-23,55.1,39.3,23.3,29.0,24.6,20.4,91,60,30,30.05,29.90,17,1,0,0.00
2013-3-24,41.5,36.8,31.3,32.6,27.6,23.6,95,70,55,29.99,29.62,12,2,0,0.06
2013-3-25,38.8,35.1,32.5,36.8,33.7,31.3,97,95,89,29.70,29.50,13,1,0,0.36
2013-3-26,49.7,39.3,29.8,37.8,31.5,28.3,97,76,47,30.00,29.70,22,2,0,0.01
2013-3-27,51.2,40.2,27.9,32.5,28.3,25.1,93,65,43,30.13,29.99,19,2,0,0.00
2013-3-28,50.9,40.2,27.2,33.5,28.9,24.1,89,66,46,30.23,30.10,22,3,0,0.00
2013-3-29,56.4,45.4,34.6,35.5,31.9,29.1,86,61,39,30.26,30.14,15,2,0,0.00
2013-3-30,62.1,46.1,29.5,37.0,31.2,26.9,93,61,31,30.22,30.09,12,1,0,0.00
2013-3-31,54.3,48.2,43.2,50.9,42.7,32.0,97,82,59,30.11,29.74,15,1,0,0.03